createdAt,value
2019-06-08T00:00:23.561Z,5.47
2019-06-08T00:02:53.128Z,4.87
2019-06-08T00:05:23.136Z,5.30
2019-06-08T00:07:52.797Z,5.60
2019-06-08T00:10:25.533Z,4.90
2019-06-08T00:12:53.691Z,5.27
2019-06-08T00:15:42.598Z,6.07
2019-06-08T00:18:13.198Z,5.13
2019-06-08T00:20:42.794Z,6.03
2019-06-08T00:23:13.657Z,5.57
2019-06-08T00:25:43.304Z,6.50
2019-06-08T00:28:14.088Z,6.17
2019-06-08T00:30:43.642Z,6.83
2019-06-08T00:33:14.264Z,7.03
2019-06-08T00:36:03.322Z,6.33
2019-06-08T00:38:32.890Z,6.70
2019-06-08T00:41:02.453Z,6.37
2019-06-08T00:43:31.942Z,6.07
2019-06-08T00:46:01.442Z,5.70
2019-06-08T00:48:30.993Z,5.93
2019-06-08T00:51:00.572Z,6.10
2019-06-08T00:53:30.124Z,5.53
2019-06-08T00:55:59.685Z,5.57
2019-06-08T00:58:30.468Z,5.40
2019-06-08T01:01:00.035Z,5.30
2019-06-08T01:03:30.043Z,5.87
2019-06-08T01:05:59.725Z,6.17
2019-06-08T01:08:29.396Z,5.00
2019-06-08T01:10:58.933Z,5.57
2019-06-08T01:13:28.973Z,5.03
2019-06-08T01:15:58.669Z,5.13
2019-06-08T01:18:29.311Z,5.17
2019-06-08T01:20:59.011Z,5.57
2019-06-08T01:23:29.792Z,5.30
2019-06-08T01:25:59.433Z,5.33
2019-06-08T01:28:30.247Z,5.03
2019-06-08T01:30:59.876Z,5.23
2019-06-08T01:33:30.821Z,5.27
2019-06-08T01:36:00.546Z,5.70
2019-06-08T01:38:31.163Z,4.50
2019-06-08T01:41:00.779Z,5.20
2019-06-08T01:43:30.349Z,5.40
2019-06-08T01:45:59.838Z,5.37
2019-06-08T01:48:30.273Z,5.13
2019-06-08T01:50:59.865Z,5.50
2019-06-08T01:53:29.362Z,6.10
2019-06-08T01:55:58.853Z,5.80
2019-06-08T01:58:29.442Z,4.90
2019-06-08T02:00:59.165Z,5.17
2019-06-08T02:03:28.743Z,4.70
2019-06-08T02:05:58.377Z,4.60
2019-06-08T02:08:28.639Z,4.53
2019-06-08T02:10:58.487Z,5.03
2019-06-08T02:13:28.888Z,4.50
2019-06-08T02:15:59.086Z,4.60
2019-06-08T02:18:41.886Z,4.63
2019-06-08T02:20:59.846Z,4.57
2019-06-08T02:23:29.620Z,4.87
2019-06-08T02:26:00.744Z,4.37
2019-06-08T02:28:31.512Z,4.43
2019-06-08T02:31:01.093Z,4.20
2019-06-08T02:33:32.308Z,4.70
2019-06-08T02:36:02.039Z,4.23
2019-06-08T02:38:32.104Z,5.00
2019-06-08T02:41:02.732Z,3.97
2019-06-08T02:43:33.355Z,4.30
2019-06-08T02:46:03.023Z,3.90
2019-06-08T02:48:33.580Z,4.00
2019-06-08T02:51:05.657Z,3.83
2019-06-08T02:53:36.811Z,4.03
2019-06-08T02:56:06.654Z,3.40
2019-06-08T02:58:39.051Z,3.87
2019-06-08T03:01:08.742Z,3.60
2019-06-08T03:03:40.120Z,3.97
2019-06-08T03:06:09.510Z,3.87
2019-06-08T03:08:41.451Z,3.80
2019-06-08T03:11:10.397Z,3.57
2019-06-08T03:13:42.444Z,3.57
2019-06-08T03:16:12.288Z,3.53
2019-06-08T03:18:42.651Z,3.53
2019-06-08T03:21:12.311Z,3.60
2019-06-08T03:23:43.495Z,3.33
2019-06-08T03:26:13.241Z,3.70
2019-06-08T03:28:44.403Z,3.87
2019-06-08T03:31:14.155Z,3.43
2019-06-08T03:33:53.762Z,3.07
2019-06-08T03:36:14.917Z,3.30
2019-06-08T03:38:44.828Z,3.30
2019-06-08T03:41:14.485Z,3.40
2019-06-08T03:43:43.972Z,3.33
2019-06-08T03:46:13.543Z,3.00
2019-06-08T03:48:44.514Z,3.17
2019-06-08T03:51:14.212Z,3.00
2019-06-08T03:53:46.457Z,2.93
2019-06-08T03:56:14.985Z,2.90
2019-06-08T03:58:46.092Z,2.90
2019-06-08T04:01:15.837Z,3.17
2019-06-08T04:03:46.224Z,3.10
2019-06-08T04:06:16.079Z,2.90
2019-06-08T04:08:47.465Z,2.87
2019-06-08T04:11:16.831Z,2.80
2019-06-08T04:13:47.167Z,3.00
2019-06-08T04:16:17.060Z,2.67
2019-06-08T04:18:46.939Z,2.63
2019-06-08T04:21:16.694Z,2.90
2019-06-08T04:23:47.182Z,2.50
2019-06-08T04:26:16.967Z,2.60
2019-06-08T04:28:47.241Z,2.60
2019-06-08T04:31:17.797Z,2.57
2019-06-08T04:33:47.287Z,2.63
2019-06-08T04:36:16.773Z,2.67
2019-06-08T04:38:47.950Z,2.60
2019-06-08T04:41:17.622Z,2.77
2019-06-08T04:43:49.517Z,2.50
2019-06-08T04:46:18.506Z,2.50
2019-06-08T04:48:49.968Z,2.70
2019-06-08T04:51:19.470Z,2.40
2019-06-08T04:53:49.688Z,2.53
2019-06-08T04:56:19.476Z,2.60
2019-06-08T04:58:51.070Z,2.70
2019-06-08T05:01:20.234Z,2.60
2019-06-08T05:03:50.184Z,2.30
2019-06-08T05:06:19.922Z,2.20
2019-06-08T05:08:49.880Z,2.23
2019-06-08T05:11:19.641Z,2.43
2019-06-08T05:13:49.638Z,2.60
2019-06-08T05:16:19.684Z,2.00
2019-06-08T05:18:49.677Z,1.90
2019-06-08T05:21:19.687Z,2.00
2019-06-08T05:23:58.254Z,1.90
2019-06-08T05:26:20.701Z,1.70
2019-06-08T05:28:50.264Z,1.77
2019-06-08T05:31:19.758Z,1.70
2019-06-08T05:33:49.741Z,2.07
2019-06-08T05:36:19.747Z,1.80
2019-06-08T05:39:08.773Z,1.80
2019-06-08T05:41:39.328Z,1.93
2019-06-08T05:44:09.297Z,1.97
2019-06-08T05:46:39.579Z,1.53
2019-06-08T05:49:09.355Z,1.87
2019-06-08T05:51:39.766Z,1.70
2019-06-08T05:54:09.406Z,1.60
2019-06-08T05:56:39.814Z,1.77
2019-06-08T05:59:28.869Z,1.70
2019-06-08T06:01:58.526Z,1.80
2019-06-08T06:04:28.016Z,1.63
2019-06-08T06:06:57.589Z,1.50
2019-06-08T06:09:27.083Z,1.50
2019-06-08T06:11:56.746Z,1.80
2019-06-08T06:17:19.462Z,1.37
2019-06-08T06:19:49.267Z,1.57
2019-06-08T06:22:18.877Z,1.50
2019-06-08T06:24:49.496Z,1.53
2019-06-08T06:27:19.217Z,1.20
2019-06-08T06:29:49.921Z,1.60
2019-06-08T06:32:19.465Z,1.80
2019-06-08T06:34:49.894Z,1.60
2019-06-08T06:37:19.561Z,1.70
2019-06-08T06:39:50.097Z,1.30
2019-06-08T06:42:19.831Z,1.50
2019-06-08T06:44:50.543Z,1.40
2019-06-08T06:47:20.373Z,1.47
2019-06-08T06:49:54.800Z,1.47
2019-06-08T06:52:24.379Z,1.20
2019-06-08T06:54:53.874Z,1.40
2019-06-08T06:57:23.435Z,1.43
2019-06-08T06:59:54.156Z,1.30
2019-06-08T07:02:23.942Z,1.37
2019-06-08T07:04:54.307Z,1.40
2019-06-08T07:07:24.020Z,1.37
2019-06-08T07:09:54.742Z,1.70
2019-06-08T07:12:24.599Z,1.40
2019-06-08T07:14:55.452Z,1.50
2019-06-08T07:17:25.190Z,1.63
2019-06-08T07:19:54.780Z,1.20
2019-06-08T07:22:24.583Z,1.50
2019-06-08T07:24:54.511Z,1.37
2019-06-08T07:27:24.149Z,1.33
2019-06-08T07:29:54.729Z,1.30
2019-06-08T07:32:24.463Z,1.40
2019-06-08T07:34:55.169Z,1.50
2019-06-08T07:37:25.066Z,1.40
2019-06-08T07:39:55.960Z,1.50
2019-06-08T07:42:25.856Z,1.33
2019-06-08T07:44:55.420Z,1.30
2019-06-08T07:47:25.082Z,1.30
2019-06-08T07:49:55.583Z,1.57
2019-06-08T07:52:25.489Z,1.73
2019-06-08T07:54:55.005Z,2.20
2019-06-08T07:57:24.568Z,1.57
2019-06-08T07:59:54.630Z,1.03
2019-06-08T08:02:24.605Z,1.33
2019-06-08T08:04:54.589Z,1.23
2019-06-08T08:07:24.330Z,1.53
2019-06-08T08:09:54.909Z,1.60
2019-06-08T08:12:24.551Z,1.60
2019-06-08T08:14:55.207Z,1.80
2019-06-08T08:17:25.152Z,1.33
2019-06-08T08:19:55.141Z,1.57
2019-06-08T08:22:26.373Z,1.40
2019-06-08T08:25:01.334Z,1.57
2019-06-08T08:27:28.065Z,1.60
2019-06-08T08:30:02.677Z,1.40
2019-06-08T08:32:32.236Z,1.33
2019-06-08T08:35:02.973Z,1.50
2019-06-08T08:37:32.836Z,1.60
2019-06-08T08:40:02.479Z,1.57
2019-06-08T08:42:32.167Z,1.53
2019-06-08T08:45:05.028Z,1.57
2019-06-08T08:47:32.889Z,1.40
2019-06-08T08:50:02.461Z,1.60
2019-06-08T08:52:37.090Z,1.40
2019-06-08T08:55:03.515Z,1.60
2019-06-08T08:57:33.225Z,1.63
2019-06-08T09:00:12.504Z,1.43
2019-06-08T09:02:43.162Z,1.23
2019-06-08T09:05:12.801Z,1.40
2019-06-08T09:07:42.301Z,1.70
2019-06-08T09:10:13.144Z,1.60
2019-06-08T09:12:42.630Z,1.90
2019-06-08T09:15:12.529Z,1.50
2019-06-08T09:17:42.118Z,1.60
2019-06-08T09:20:15.312Z,1.67
2019-06-08T09:22:53.816Z,1.50
2019-06-08T09:25:14.558Z,1.30
2019-06-08T09:27:44.128Z,1.80
2019-06-08T09:30:14.188Z,1.70
2019-06-08T09:32:43.918Z,1.40
2019-06-08T09:35:13.553Z,1.40
2019-06-08T09:37:43.215Z,1.50
2019-06-08T09:40:12.849Z,1.53
2019-06-08T09:42:42.453Z,1.50
2019-06-08T09:45:12.421Z,1.43
2019-06-08T09:47:41.933Z,1.40
2019-06-08T09:50:12.055Z,1.30
2019-06-08T09:52:41.583Z,1.90
2019-06-08T09:55:11.809Z,1.73
2019-06-08T09:57:41.369Z,1.53
2019-06-08T10:00:17.760Z,1.60
2019-06-08T10:02:42.465Z,1.90
2019-06-08T10:05:12.027Z,1.47
2019-06-08T10:07:41.597Z,1.97
2019-06-08T10:10:11.449Z,2.33
2019-06-08T10:12:41.341Z,1.77
2019-06-08T10:15:12.088Z,1.60
2019-06-08T10:17:41.743Z,1.50
2019-06-08T10:20:11.899Z,1.50
2019-06-08T10:22:41.458Z,1.30
2019-06-08T10:25:11.617Z,1.87
2019-06-08T10:27:41.327Z,1.60
2019-06-08T10:30:11.523Z,1.40
2019-06-08T10:32:41.003Z,1.43
2019-06-08T10:35:11.909Z,1.50
2019-06-08T10:37:41.392Z,1.43
2019-06-08T10:40:13.368Z,1.57
2019-06-08T10:42:43.021Z,2.03
2019-06-08T10:45:15.416Z,1.90
2019-06-08T10:47:47.759Z,1.60
2019-06-08T10:50:19.168Z,1.63
2019-06-08T10:52:49.044Z,1.53
2019-06-08T10:55:18.745Z,1.70
2019-06-08T10:57:48.310Z,1.70
2019-06-08T11:00:24.030Z,1.60
2019-06-08T11:02:52.652Z,1.70
2019-06-08T11:05:22.137Z,1.70
2019-06-08T11:07:51.706Z,1.80
2019-06-08T11:10:26.230Z,1.60
2019-06-08T11:12:58.227Z,1.60
2019-06-08T11:15:29.333Z,1.70
2019-06-08T11:18:02.297Z,1.53
2019-06-08T11:20:30.163Z,1.60
2019-06-08T11:23:02.084Z,1.80
2019-06-08T11:25:31.614Z,1.53
2019-06-08T11:28:01.804Z,1.60
2019-06-08T11:30:31.414Z,1.60
2019-06-08T11:33:02.097Z,1.57
2019-06-08T11:35:31.848Z,1.60
2019-06-08T11:38:02.226Z,1.57
2019-06-08T11:40:31.852Z,2.10
2019-06-08T11:43:02.272Z,1.50
2019-06-08T11:45:31.972Z,1.47
2019-06-08T11:48:02.730Z,1.73
2019-06-08T11:50:41.444Z,1.90
2019-06-08T11:53:12.643Z,1.40
2019-06-08T11:55:40.289Z,1.80
2019-06-08T11:58:12.093Z,1.90
2019-06-08T12:01:04.685Z,1.60
2019-06-08T12:03:33.406Z,1.40
2019-06-08T12:06:04.195Z,1.60
2019-06-08T12:08:33.841Z,1.67
2019-06-08T12:11:15.721Z,1.80
2019-06-08T12:13:39.584Z,1.80
2019-06-08T12:16:14.921Z,1.50
2019-06-08T12:18:40.871Z,1.60
2019-06-08T12:21:12.592Z,1.70
2019-06-08T12:23:41.817Z,1.63
2019-06-08T12:26:14.525Z,1.50
2019-06-08T12:28:48.615Z,1.93
2019-06-08T12:31:22.806Z,1.50
2019-06-08T12:33:58.624Z,1.57
2019-06-08T12:36:32.068Z,1.93
2019-06-08T12:39:10.076Z,1.93
2019-06-08T12:41:43.474Z,1.87
2019-06-08T12:44:19.844Z,1.77
2019-06-08T12:46:52.072Z,1.63
2019-06-08T12:49:26.123Z,1.90
2019-06-08T12:52:02.246Z,1.77
2019-06-08T12:54:34.031Z,1.50
2019-06-08T12:57:12.504Z,1.63
2019-06-08T12:59:44.845Z,2.10
2019-06-08T13:02:21.856Z,1.47
2019-06-08T13:04:51.478Z,1.90
2019-06-08T13:07:22.824Z,1.60
2019-06-08T13:09:58.749Z,1.67
2019-06-08T13:12:34.474Z,1.60
2019-06-08T13:15:08.446Z,1.50
2019-06-08T13:17:40.272Z,1.80
2019-06-08T13:20:22.142Z,1.83
2019-06-08T13:22:52.166Z,1.40
2019-06-08T13:25:36.130Z,1.40
2019-06-08T13:28:00.264Z,2.30
2019-06-08T13:30:32.448Z,1.87
2019-06-08T13:33:03.069Z,1.53
2019-06-08T13:35:35.859Z,1.60
2019-06-08T13:38:08.741Z,1.67
2019-06-08T13:40:49.648Z,2.83
2019-06-08T13:43:22.742Z,1.70
2019-06-08T13:45:59.432Z,1.60
2019-06-08T13:48:29.402Z,1.97
2019-06-08T13:50:59.792Z,1.70
2019-06-08T13:53:31.886Z,1.67
2019-06-08T13:56:02.559Z,2.00
2019-06-08T13:58:34.870Z,1.80
2019-06-08T14:01:09.991Z,1.67
2019-06-08T14:03:39.938Z,1.70
2019-06-08T14:06:11.652Z,1.80
2019-06-08T14:08:41.825Z,1.70
2019-06-08T14:11:12.177Z,1.60
2019-06-08T14:13:43.564Z,1.70
2019-06-08T14:16:15.932Z,1.70
2019-06-08T14:18:48.596Z,2.10
2019-06-08T14:21:25.766Z,1.73
2019-06-08T14:23:53.579Z,1.73
2019-06-08T14:26:24.723Z,1.60
2019-06-08T14:28:58.723Z,1.83
2019-06-08T14:31:30.398Z,1.80
2019-06-08T14:34:01.491Z,1.80
2019-06-08T14:36:33.245Z,1.80
2019-06-08T14:39:15.537Z,1.53
2019-06-08T14:41:49.226Z,2.00
2019-06-08T14:44:22.699Z,1.50
2019-06-08T14:46:57.758Z,1.87
2019-06-08T14:49:34.864Z,1.77
2019-06-08T14:52:04.078Z,1.83
2019-06-08T14:54:35.282Z,1.80
2019-06-08T14:57:08.486Z,1.53
2019-06-08T14:59:40.696Z,2.20
2019-06-08T15:02:12.358Z,1.90
2019-06-08T15:04:52.088Z,1.97
2019-06-08T15:07:24.831Z,1.70
2019-06-08T15:10:02.053Z,1.93
2019-06-08T15:12:35.556Z,1.67
2019-06-08T15:15:11.425Z,1.70
2019-06-08T15:17:44.576Z,1.80
2019-06-08T15:20:17.633Z,1.70
2019-06-08T15:22:48.821Z,1.57
2019-06-08T15:25:20.523Z,2.20
2019-06-08T15:27:54.370Z,1.90
2019-06-08T15:30:46.496Z,2.23
2019-06-08T15:33:21.511Z,1.80
2019-06-08T15:35:53.145Z,1.80
2019-06-08T15:38:25.336Z,1.70
2019-06-08T15:40:57.707Z,1.63
2019-06-08T15:43:34.438Z,2.53
2019-06-08T15:46:11.643Z,1.70
2019-06-08T15:48:43.737Z,1.70
2019-06-08T15:51:15.990Z,1.83
2019-06-08T15:53:50.832Z,2.03
2019-06-08T15:56:41.791Z,1.70
2019-06-08T15:59:00.821Z,1.83
2019-06-08T16:01:33.849Z,1.60
2019-06-08T16:04:05.547Z,1.60
2019-06-08T16:06:37.020Z,1.73
2019-06-08T16:09:09.617Z,1.83
2019-06-08T16:11:41.039Z,1.60
2019-06-08T16:14:11.552Z,1.60
2019-06-08T16:16:44.382Z,1.80
2019-06-08T16:19:15.787Z,1.80
2019-06-08T16:21:48.193Z,1.83
2019-06-08T16:24:21.698Z,1.70
2019-06-08T16:26:54.566Z,1.93
2019-06-08T16:29:26.810Z,1.60
2019-06-08T16:32:00.623Z,1.70
2019-06-08T16:34:31.381Z,1.50
2019-06-08T16:37:03.962Z,1.90
2019-06-08T16:39:35.413Z,1.90
2019-06-08T16:42:07.150Z,1.70
2019-06-08T16:44:40.679Z,1.70
2019-06-08T16:47:11.644Z,1.83
2019-06-08T16:49:43.264Z,1.77
2019-06-08T16:52:17.205Z,1.80
2019-06-08T16:54:48.181Z,1.70
2019-06-08T16:57:19.631Z,1.70
2019-06-08T16:59:50.817Z,1.80
2019-06-08T17:02:21.572Z,1.97
2019-06-08T17:04:52.658Z,2.00
2019-06-08T17:07:23.700Z,1.87
2019-06-08T17:09:55.166Z,2.10
2019-06-08T17:12:26.248Z,2.23
2019-06-08T17:14:57.843Z,1.90
2019-06-08T17:17:29.985Z,2.27
2019-06-08T17:20:00.671Z,1.70
2019-06-08T17:22:34.530Z,1.80
2019-06-08T17:25:08.497Z,1.63
2019-06-08T17:27:38.960Z,1.80
2019-06-08T17:30:10.491Z,1.70
2019-06-08T17:32:43.223Z,1.93
2019-06-08T17:35:14.389Z,1.67
2019-06-08T17:37:45.724Z,2.00
2019-06-08T17:40:19.123Z,1.90
2019-06-08T17:42:50.601Z,1.87
2019-06-08T17:45:22.013Z,1.60
2019-06-08T17:47:53.797Z,1.97
2019-06-08T17:50:23.977Z,2.10
2019-06-08T17:52:54.114Z,1.80
2019-06-08T17:55:28.303Z,1.97
2019-06-08T17:57:59.326Z,1.70
2019-06-08T18:00:30.844Z,1.87
2019-06-08T18:03:02.584Z,1.70
2019-06-08T18:05:33.756Z,2.13
2019-06-08T18:08:03.523Z,2.00
2019-06-08T18:10:33.764Z,1.87
2019-06-08T18:13:07.414Z,1.87
2019-06-08T18:15:40.117Z,1.70
2019-06-08T18:18:11.656Z,1.83
2019-06-08T18:20:52.097Z,1.90
2019-06-08T18:23:21.847Z,1.87
2019-06-08T18:25:54.019Z,1.70
2019-06-08T18:28:24.721Z,1.63
2019-06-08T18:31:01.270Z,2.17
2019-06-08T18:33:32.690Z,1.90
2019-06-08T18:36:03.851Z,1.80
2019-06-08T18:38:35.283Z,1.83
2019-06-08T18:41:08.103Z,2.03
2019-06-08T18:43:39.675Z,1.90
2019-06-08T18:46:08.866Z,2.17
2019-06-08T18:48:41.662Z,2.40
2019-06-08T18:51:10.687Z,2.13
2019-06-08T18:53:56.112Z,2.17
2019-06-08T18:56:11.444Z,2.40
2019-06-08T18:58:42.149Z,1.97
2019-06-08T19:01:11.853Z,1.90
2019-06-08T19:03:44.757Z,1.80
2019-06-08T19:06:12.746Z,2.00
2019-06-08T19:08:46.548Z,1.90
2019-06-08T19:11:19.403Z,2.03
2019-06-08T19:13:52.540Z,2.00
2019-06-08T19:16:22.264Z,2.00
2019-06-08T19:18:59.656Z,1.83
2019-06-08T19:21:32.619Z,1.93
2019-06-08T19:24:09.410Z,1.90
2019-06-08T19:26:40.965Z,2.20
2019-06-08T19:29:11.691Z,2.13
2019-06-08T19:31:45.330Z,2.00
2019-06-08T19:34:18.070Z,2.20
2019-06-08T19:36:54.224Z,2.03
2019-06-08T19:39:21.185Z,2.13
2019-06-08T19:41:50.780Z,2.30
2019-06-08T19:44:20.441Z,1.70
2019-06-08T19:46:53.137Z,2.07
2019-06-08T19:49:32.853Z,2.10
2019-06-08T19:52:03.845Z,2.27
2019-06-08T19:54:34.828Z,2.00
2019-06-08T19:57:07.804Z,1.97
2019-06-08T19:59:38.562Z,1.97
2019-06-08T20:02:11.133Z,1.90
2019-06-08T20:04:41.319Z,2.10
2019-06-08T20:07:12.165Z,1.80
2019-06-08T20:09:43.503Z,2.00
2019-06-08T20:12:13.464Z,2.00
2019-06-08T20:14:43.404Z,2.20
2019-06-08T20:17:13.453Z,2.30
2019-06-08T20:19:43.055Z,2.40
2019-06-08T20:22:12.546Z,1.73
2019-06-08T20:24:44.022Z,2.00
2019-06-08T20:27:17.080Z,2.00
2019-06-08T20:29:48.243Z,2.17
2019-06-08T20:32:20.131Z,2.63
2019-06-08T20:34:51.157Z,2.10
2019-06-08T20:37:22.475Z,2.00
2019-06-08T20:40:03.036Z,2.20
2019-06-08T20:42:24.204Z,2.50
2019-06-08T20:44:54.109Z,2.07
2019-06-08T20:47:23.676Z,2.10
2019-06-08T20:49:53.506Z,2.43
2019-06-08T20:52:23.186Z,2.00
2019-06-08T20:54:53.513Z,2.00
2019-06-08T20:57:23.159Z,2.07
2019-06-08T20:59:54.005Z,2.00
2019-06-08T21:02:23.861Z,2.07
2019-06-08T21:04:54.945Z,2.50
2019-06-08T21:07:24.604Z,2.10
2019-06-08T21:09:55.374Z,2.27
2019-06-08T21:12:28.154Z,2.30
2019-06-08T21:14:56.860Z,2.07
2019-06-08T21:17:27.566Z,2.00
2019-06-08T21:19:57.947Z,2.27
2019-06-08T21:22:27.841Z,2.13
2019-06-08T21:24:59.878Z,2.10
2019-06-08T21:27:28.834Z,2.20
2019-06-08T21:30:06.727Z,2.17
2019-06-08T21:32:29.601Z,2.23
2019-06-08T21:35:00.305Z,2.10
2019-06-08T21:37:30.091Z,2.43
2019-06-08T21:40:03.680Z,2.27
2019-06-08T21:42:30.853Z,2.20
2019-06-08T21:45:02.192Z,2.27
2019-06-08T21:47:31.557Z,2.40
2019-06-08T21:50:01.038Z,2.23
2019-06-08T21:52:30.597Z,2.17
2019-06-08T21:55:00.634Z,2.27
2019-06-08T21:57:30.158Z,2.40
2019-06-08T22:00:21.604Z,2.30
2019-06-08T22:02:31.062Z,1.90
2019-06-08T22:05:04.189Z,2.20
2019-06-08T22:07:31.804Z,2.27
2019-06-08T22:10:02.784Z,2.40
2019-06-08T22:12:32.337Z,2.47
2019-06-08T22:15:02.980Z,2.30
2019-06-08T22:17:32.822Z,2.10
2019-06-08T22:20:03.449Z,2.20
2019-06-08T22:22:33.036Z,1.97
2019-06-08T22:25:03.686Z,2.10
2019-06-08T22:27:33.345Z,2.10
2019-06-08T22:30:09.737Z,2.30
2019-06-08T22:32:34.532Z,2.20
2019-06-08T22:35:04.761Z,2.00
2019-06-08T22:37:34.256Z,1.97
2019-06-08T22:40:07.934Z,1.80
2019-06-08T22:42:37.458Z,2.07
2019-06-08T22:45:08.359Z,1.90
2019-06-08T22:47:38.815Z,2.10
2019-06-08T22:50:09.221Z,1.80
2019-06-08T22:52:38.704Z,2.30
2019-06-08T22:55:27.845Z,1.70
2019-06-08T22:57:59.926Z,1.90
2019-06-08T23:00:28.572Z,2.60
2019-06-08T23:03:01.065Z,2.00
2019-06-08T23:05:29.325Z,2.20
2019-06-08T23:08:02.536Z,2.00
2019-06-08T23:10:30.084Z,1.90
2019-06-08T23:13:02.310Z,1.80
2019-06-08T23:15:30.904Z,1.90
2019-06-08T23:18:02.238Z,1.83
2019-06-08T23:20:37.147Z,1.90
2019-06-08T23:23:08.956Z,1.77
2019-06-08T23:25:38.176Z,1.93
2019-06-08T23:28:09.698Z,1.70
2019-06-08T23:30:39.018Z,1.73
2019-06-08T23:33:11.559Z,1.97
2019-06-08T23:36:07.749Z,1.80
2019-06-08T23:38:11.033Z,1.93
2019-06-08T23:40:40.524Z,1.90
2019-06-08T23:43:10.122Z,1.90
2019-06-08T23:45:39.668Z,1.90
2019-06-08T23:48:09.265Z,2.00
2019-06-08T23:50:38.828Z,1.73
2019-06-08T23:53:10.578Z,2.00
2019-06-08T23:55:39.578Z,1.73
2019-06-08T23:58:11.175Z,1.90
